Lulu Pass Weather Station

This weather station is located at 10020ft near Lulu Pass at the head of Fisher Creek. This data can be used with temperature and precipitation data from the Fisher Creek SNOTEL site. This data can be viewed directly on datagarrison.com

Elevation
10020ft
Jump to table bottom
Date Time Temperature
deg F
RH, % Wind Speed Wind Gust Wind Direction
02/06/23 09:00 11.9 91 10 16 NW - 296
02/06/23 08:00 11.5 91 15 20 NW - 310
02/06/23 07:00 11.4 91 14 18 NW - 309
02/06/23 06:00 11.0 91 16 19 NW - 312
02/06/23 05:00 11.3 91 16 23 NW - 296
02/06/23 04:00 11.6 91 17 23 NW - 293
02/06/23 03:00 11.9 91 16 23 NW - 295
02/06/23 02:00 12.1 91 14 25 W - 279
02/06/23 01:00 12.4 92 14 26 W - 274
02/06/23 00:00 12.7 92 10 17 W - 270
02/05/23 23:00 12.7 92 9 18 SW - 236
02/05/23 22:00 13.2 92 7 22 SW - 232
02/05/23 21:00 13.6 92 8 19 SW - 236
02/05/23 20:00 13.9 92 10 26 SW - 237
02/05/23 19:00 14.3 92 10 21 W - 256
02/05/23 18:00 15.1 92 7 16 W - 267
02/05/23 17:00 15.5 92 10 25 SW - 237
02/05/23 16:00 16.9 93 9 24 SW - 234
02/05/23 15:00 17.4 92 10 25 W - 254
02/05/23 14:00 18.1 91 13 33 SW - 215
02/05/23 13:00 18.4 84 20 37 S - 195
02/05/23 12:00 19.8 77 21 38 S - 187
02/05/23 11:00 20.0 73 22 44 S - 195
02/05/23 10:00 19.6 72 21 35 S - 195
02/05/23 09:00 19.6 73 18 38 S - 194
02/05/23 08:00 18.2 85 15 31 S - 195
02/05/23 07:00 17.2 92 11 27 S - 197
02/05/23 06:00 16.1 92 7 25 S - 202
02/05/23 05:00 13.9 92 5 19 NW - 316
02/05/23 04:00 13.0 92 4 10 N - 350
02/05/23 03:00 12.6 92 4 10 NW - 329
02/05/23 02:00 12.1 92 4 10 W - 271
02/05/23 01:00 11.9 92 5 14 S - 185
02/05/23 00:00 12.0 92 5 12 SW - 204
02/04/23 23:00 13.5 92 5 13 SW - 205
02/04/23 22:00 14.0 92 6 15 SW - 243
02/04/23 21:00 14.3 92 8 21 SW - 227
02/04/23 20:00 14.5 92 6 18 SW - 232
02/04/23 19:00 14.6 92 8 21 SW - 234
02/04/23 18:00 14.7 92 10 26 SW - 234
02/04/23 17:00 14.8 92 12 26 SW - 225
02/04/23 16:00 15.6 92 11 26 SW - 219
02/04/23 15:00 15.9 92 12 28 SW - 218
02/04/23 14:00 15.1 92 13 26 SW - 220
02/04/23 13:00 15.1 92 14 32 SW - 225
02/04/23 12:00 14.1 92 11 29 SW - 230
02/04/23 11:00 13.2 91 13 31 SW - 229
02/04/23 10:00 12.5 91 13 32 SW - 213
02/04/23 09:00 11.9 91 15 31 SW - 219
02/04/23 08:00 12.2 92 15 31 SW - 222